createdAt,value
2018-08-03T00:02:10.009Z,3.97
2018-08-03T00:04:39.391Z,4.03
2018-08-03T00:07:08.797Z,4.17
2018-08-03T00:09:38.229Z,4.17
2018-08-03T00:12:07.567Z,4.80
2018-08-03T00:14:36.922Z,3.83
2018-08-03T00:17:07.075Z,4.60
2018-08-03T00:19:36.546Z,4.30
2018-08-03T00:22:05.950Z,4.33
2018-08-03T00:24:35.292Z,4.40
2018-08-03T00:27:04.628Z,4.53
2018-08-03T00:29:34.786Z,4.63
2018-08-03T00:32:04.105Z,4.03
2018-08-03T00:34:33.536Z,4.50
2018-08-03T00:37:02.885Z,4.67
2018-08-03T00:40:35.423Z,4.90
2018-08-03T00:43:04.775Z,4.40
2018-08-03T00:45:34.079Z,4.77
2018-08-03T00:48:04.316Z,4.50
2018-08-03T00:50:33.685Z,4.60
2018-08-03T00:53:03.020Z,4.47
2018-08-03T00:55:32.367Z,4.47
2018-08-03T00:58:01.700Z,4.67
2018-08-03T01:00:31.105Z,4.70
2018-08-03T01:03:00.426Z,4.47
2018-08-03T01:05:29.761Z,4.60
2018-08-03T01:07:59.107Z,4.80
2018-08-03T01:10:28.513Z,4.83
2018-08-03T01:12:57.833Z,4.57
2018-08-03T01:15:27.164Z,4.80
2018-08-03T01:17:56.541Z,4.63
2018-08-03T01:20:26.451Z,4.60
2018-08-03T01:22:55.779Z,4.50
2018-08-03T01:25:25.160Z,4.70
2018-08-03T01:27:54.484Z,4.60
2018-08-03T01:30:23.947Z,4.67
2018-08-03T01:32:53.293Z,4.73
2018-08-03T01:35:22.615Z,5.00
2018-08-03T01:37:52.326Z,4.87
2018-08-03T01:40:21.652Z,4.70
2018-08-03T01:42:50.972Z,5.13
2018-08-03T01:45:20.334Z,5.20
2018-08-03T01:47:49.677Z,5.00
2018-08-03T01:51:49.249Z,5.03
2018-08-03T01:54:18.520Z,5.47
2018-08-03T01:56:47.880Z,4.93
2018-08-03T01:59:17.278Z,4.80
2018-08-03T02:01:46.602Z,4.80
2018-08-03T02:04:15.953Z,4.50
2018-08-03T02:06:45.331Z,4.77
2018-08-03T02:09:14.675Z,4.50
2018-08-03T02:11:44.108Z,4.73
2018-08-03T02:14:13.438Z,4.60
2018-08-03T02:16:42.757Z,4.63
2018-08-03T02:19:12.181Z,5.00
2018-08-03T02:21:41.515Z,4.80
2018-08-03T02:24:11.222Z,5.03
2018-08-03T02:26:40.675Z,5.33
2018-08-03T02:29:10.077Z,5.43
2018-08-03T02:31:38.949Z,5.30
2018-08-03T02:34:08.288Z,5.50
2018-08-03T02:36:37.624Z,5.07
2018-08-03T02:39:09.409Z,4.80
2018-08-03T02:41:45.180Z,4.53
2018-08-03T02:44:14.499Z,5.30
2018-08-03T02:46:43.860Z,5.00
2018-08-03T02:49:13.216Z,5.07
2018-08-03T02:51:42.616Z,4.87
2018-08-03T02:54:11.942Z,4.70
2018-08-03T02:56:42.092Z,5.20
2018-08-03T02:59:11.443Z,5.07
2018-08-03T03:01:40.762Z,4.63
2018-08-03T03:04:10.092Z,5.27
2018-08-03T03:06:39.432Z,4.63
2018-08-03T03:09:10.676Z,5.50
2018-08-03T03:11:40.040Z,5.37
2018-08-03T03:14:09.385Z,5.20
2018-08-03T03:16:38.716Z,5.47
2018-08-03T03:19:08.087Z,5.57
2018-08-03T03:21:37.479Z,5.40
2018-08-03T03:24:06.821Z,5.17
2018-08-03T03:26:36.274Z,5.33
2018-08-03T03:29:05.969Z,5.23
2018-08-03T03:31:35.307Z,5.60
2018-08-03T03:34:04.689Z,5.50
2018-08-03T03:36:34.019Z,5.40
2018-08-03T03:39:04.265Z,5.17
2018-08-03T03:41:33.597Z,5.50
2018-08-03T03:44:02.945Z,4.80
2018-08-03T03:46:32.286Z,5.40
2018-08-03T03:49:01.640Z,5.60
2018-08-03T03:51:30.972Z,5.67
2018-08-03T03:54:00.477Z,5.47
2018-08-03T03:56:29.806Z,5.20
2018-08-03T03:58:59.159Z,5.63
2018-08-03T04:01:29.532Z,5.40
2018-08-03T04:03:58.960Z,5.40
2018-08-03T04:06:28.243Z,5.23
2018-08-03T04:08:57.765Z,5.50
2018-08-03T04:11:27.115Z,5.60
2018-08-03T04:13:56.441Z,5.90
2018-08-03T04:16:25.797Z,5.60
2018-08-03T04:18:55.205Z,5.80
2018-08-03T04:21:24.553Z,5.63
2018-08-03T04:23:53.902Z,6.00
2018-08-03T04:26:23.224Z,5.67
2018-08-03T04:28:52.565Z,5.80
2018-08-03T04:31:21.895Z,5.73
2018-08-03T04:33:51.740Z,5.40
2018-08-03T04:36:21.143Z,5.90
2018-08-03T04:38:50.651Z,5.97
2018-08-03T04:47:10.289Z,6.23
2018-08-03T04:50:22.112Z,6.27
2018-08-03T04:56:57.614Z,5.60
2018-08-03T04:59:27.106Z,6.07
2018-08-03T05:01:57.603Z,5.43
2018-08-03T05:04:28.245Z,5.87
2018-08-03T05:06:57.096Z,5.73
2018-08-03T05:09:26.524Z,5.70
2018-08-03T05:11:55.962Z,5.50
2018-08-03T05:14:25.414Z,5.50
2018-08-03T05:16:54.853Z,5.47
2018-08-03T05:19:24.412Z,5.63
2018-08-03T05:21:53.820Z,6.17
2018-08-03T05:24:23.286Z,6.20
2018-08-03T05:26:53.740Z,5.50
2018-08-03T05:29:27.221Z,5.97
2018-08-03T05:31:56.598Z,6.20
2018-08-03T05:34:25.980Z,6.27
2018-08-03T05:36:55.386Z,6.37
2018-08-03T05:39:24.874Z,5.90
2018-08-03T05:41:54.325Z,6.00
2018-08-03T05:44:23.996Z,6.20
2018-08-03T05:46:53.508Z,6.50
2018-08-03T05:49:22.955Z,6.30
2018-08-03T05:51:52.379Z,6.27
2018-08-03T05:54:22.545Z,6.87
2018-08-03T05:56:52.096Z,6.80
2018-08-03T05:59:22.652Z,8.53
2018-08-03T06:01:52.154Z,11.30
2018-08-03T06:04:22.368Z,8.73
2018-08-03T06:06:52.968Z,7.90
2018-08-03T06:09:22.630Z,7.03
2018-08-03T06:11:52.231Z,6.60
2018-08-03T06:14:21.810Z,6.80
2018-08-03T06:16:52.011Z,6.90
2018-08-03T06:19:21.650Z,7.47
2018-08-03T06:21:51.312Z,7.33
2018-08-03T06:24:20.828Z,6.83
2018-08-03T06:26:50.414Z,6.53
2018-08-03T06:29:20.120Z,6.70
2018-08-03T06:31:49.718Z,6.57
2018-08-03T06:34:19.240Z,6.87
2018-08-03T06:36:48.778Z,6.50
2018-08-03T06:39:18.664Z,6.53
2018-08-03T06:41:47.509Z,6.80
2018-08-03T06:44:17.089Z,6.37
2018-08-03T06:46:46.680Z,6.73
2018-08-03T06:49:16.312Z,6.80
2018-08-03T06:51:46.025Z,6.80
2018-08-03T06:54:15.723Z,6.60
2018-08-03T06:56:45.283Z,6.87
2018-08-03T07:00:44.066Z,6.37
2018-08-03T07:03:13.663Z,6.53
2018-08-03T07:05:43.367Z,7.13
2018-08-03T07:08:13.856Z,6.53
2018-08-03T07:10:43.518Z,6.90
2018-08-03T07:13:13.041Z,6.30
2018-08-03T07:15:42.863Z,6.27
2018-08-03T07:18:12.414Z,6.27
2018-08-03T07:20:42.088Z,6.80
2018-08-03T07:23:11.631Z,6.40
2018-08-03T07:25:41.620Z,6.70
2018-08-03T07:28:11.188Z,6.97
2018-08-03T07:30:40.809Z,6.17
2018-08-03T07:33:10.348Z,6.27
2018-08-03T07:35:39.858Z,7.00
2018-08-03T07:38:09.515Z,6.57
2018-08-03T07:40:39.136Z,5.73
2018-08-03T07:43:08.844Z,6.20
2018-08-03T07:45:38.428Z,6.27
2018-08-03T07:48:08.043Z,6.17
2018-08-03T07:50:37.613Z,6.03
2018-08-03T07:53:07.112Z,6.80
2018-08-03T07:55:36.640Z,5.93
2018-08-03T07:58:06.211Z,5.67
2018-08-03T08:00:35.777Z,6.30
2018-08-03T08:03:05.415Z,5.87
2018-08-03T08:05:35.003Z,5.80
2018-08-03T08:08:04.592Z,5.73
2018-08-03T08:10:34.704Z,5.93
2018-08-03T08:13:04.202Z,6.03
2018-08-03T08:15:33.851Z,5.57
2018-08-03T08:18:03.461Z,5.37
2018-08-03T08:20:33.170Z,5.77
2018-08-03T08:23:02.801Z,5.40
2018-08-03T08:25:32.314Z,5.70
2018-08-03T08:28:01.829Z,5.40
2018-08-03T08:30:31.432Z,5.20
2018-08-03T08:33:00.969Z,5.67
2018-08-03T08:35:30.588Z,5.43
2018-08-03T08:38:00.170Z,5.27
2018-08-03T08:40:29.781Z,5.40
2018-08-03T08:42:59.373Z,5.63
2018-08-03T08:45:28.904Z,5.70
2018-08-03T08:47:58.865Z,5.40
2018-08-03T08:50:28.478Z,5.27
2018-08-03T08:52:58.274Z,5.47
2018-08-03T08:55:27.822Z,5.40
2018-08-03T08:57:57.605Z,5.10
2018-08-03T09:00:27.220Z,5.47
2018-08-03T09:02:56.743Z,5.20
2018-08-03T09:05:26.278Z,5.40
2018-08-03T09:07:55.884Z,5.43
2018-08-03T09:10:25.487Z,5.20
2018-08-03T09:12:57.168Z,5.10
2018-08-03T09:15:26.830Z,5.07
2018-08-03T09:17:56.455Z,5.17
2018-08-03T09:20:26.222Z,5.33
2018-08-03T09:22:55.840Z,5.10
2018-08-03T09:25:25.402Z,5.10
2018-08-03T09:27:54.965Z,5.03
2018-08-03T09:30:24.589Z,5.40
2018-08-03T09:32:54.269Z,5.20
2018-08-03T09:35:23.798Z,5.43
2018-08-03T09:37:53.396Z,5.33
2018-08-03T09:40:23.125Z,4.90
2018-08-03T09:42:52.668Z,5.33
2018-08-03T09:45:22.187Z,5.10
2018-08-03T09:47:51.736Z,5.20
2018-08-03T09:50:21.334Z,5.33
2018-08-03T09:52:51.529Z,5.03
2018-08-03T09:55:21.112Z,5.40
2018-08-03T09:57:50.640Z,5.00
2018-08-03T10:00:24.433Z,5.50
2018-08-03T10:02:53.969Z,5.23
2018-08-03T10:05:23.508Z,5.03
2018-08-03T10:07:53.064Z,5.43
2018-08-03T10:10:22.765Z,5.10
2018-08-03T10:12:52.514Z,4.83
2018-08-03T10:15:22.219Z,5.40
2018-08-03T10:17:51.735Z,5.07
2018-08-03T10:20:21.428Z,4.63
2018-08-03T10:22:52.639Z,5.60
2018-08-03T10:25:24.142Z,5.57
2018-08-03T10:27:55.014Z,5.43
2018-08-03T10:30:25.825Z,5.90
2018-08-03T10:32:56.861Z,5.30
2018-08-03T10:35:27.398Z,7.17
2018-08-03T10:37:56.946Z,37.80
2018-08-03T10:40:26.641Z,29.13
2018-08-03T10:42:56.260Z,31.20
2018-08-03T10:45:27.857Z,23.80
2018-08-03T10:47:58.560Z,19.67
2018-08-03T10:50:29.337Z,16.30
2018-08-03T10:52:58.999Z,18.37
2018-08-03T10:55:28.532Z,13.83
2018-08-03T10:57:58.087Z,13.47
2018-08-03T11:00:29.752Z,13.57
2018-08-03T11:02:59.975Z,15.00
2018-08-03T11:05:30.038Z,17.20
2018-08-03T11:07:59.685Z,18.07
2018-08-03T11:10:29.256Z,18.47
2018-08-03T11:12:58.762Z,22.60
2018-08-03T11:15:28.345Z,23.07
2018-08-03T11:17:57.908Z,22.87
2018-08-03T11:20:27.573Z,23.93
2018-08-03T11:22:57.228Z,25.57
2018-08-03T11:28:17.445Z,25.33
2018-08-03T11:30:48.229Z,24.63
2018-08-03T11:33:17.780Z,23.13
2018-08-03T11:35:47.362Z,23.40
2018-08-03T11:38:18.898Z,24.17
2018-08-03T11:40:55.594Z,22.80
2018-08-03T11:43:29.704Z,20.93
2018-08-03T11:46:11.639Z,19.93
2018-08-03T11:48:41.198Z,20.17
2018-08-03T11:51:10.758Z,18.57
2018-08-03T11:53:40.327Z,18.67
2018-08-03T11:56:10.150Z,18.43
2018-08-03T11:58:40.032Z,16.43
2018-08-03T12:01:09.588Z,15.67
2018-08-03T12:03:39.221Z,14.43
2018-08-03T12:06:08.748Z,14.30
2018-08-03T12:08:38.334Z,12.90
2018-08-03T12:12:10.710Z,13.10
2018-08-03T12:14:40.294Z,12.63
2018-08-03T12:17:09.940Z,12.13
2018-08-03T12:19:39.594Z,12.17
2018-08-03T12:22:09.169Z,11.53
2018-08-03T12:24:38.752Z,11.20
2018-08-03T12:27:08.275Z,11.13
2018-08-03T12:29:38.035Z,9.67
2018-08-03T12:32:07.668Z,10.40
2018-08-03T12:34:37.383Z,10.30
2018-08-03T12:37:06.935Z,9.40
2018-08-03T12:39:36.479Z,9.40
2018-08-03T12:42:06.036Z,9.33
2018-08-03T12:44:35.563Z,8.70
2018-08-03T12:47:05.175Z,8.67
2018-08-03T12:49:34.713Z,8.57
2018-08-03T12:52:04.262Z,8.97
2018-08-03T12:54:33.814Z,8.43
2018-08-03T12:57:03.340Z,8.03
2018-08-03T12:59:34.432Z,8.10
2018-08-03T13:02:11.876Z,7.97
2018-08-03T13:04:43.481Z,7.80
2018-08-03T13:07:14.084Z,7.90
2018-08-03T13:09:44.996Z,7.43
2018-08-03T13:12:20.288Z,7.20
2018-08-03T13:14:55.318Z,6.80
2018-08-03T13:17:28.445Z,7.20
2018-08-03T13:20:05.784Z,6.43
2018-08-03T13:22:44.811Z,6.87
2018-08-03T13:25:15.015Z,7.07
2018-08-03T13:27:45.146Z,6.50
2018-08-03T13:30:18.264Z,6.53
2018-08-03T13:32:48.244Z,7.10
2018-08-03T13:35:17.796Z,6.77
2018-08-03T13:37:47.604Z,6.87
2018-08-03T13:40:19.311Z,6.43
2018-08-03T13:42:50.927Z,6.93
2018-08-03T13:45:23.556Z,7.13
2018-08-03T13:47:56.341Z,6.67
2018-08-03T13:50:28.330Z,6.47
2018-08-03T13:52:58.927Z,6.40
2018-08-03T13:55:29.334Z,6.57
2018-08-03T13:58:00.314Z,6.80
2018-08-03T14:00:32.134Z,6.23
2018-08-03T14:03:03.740Z,6.50
2018-08-03T14:05:35.143Z,6.13
2018-08-03T14:08:06.502Z,6.90
2018-08-03T14:10:36.553Z,6.57
2018-08-03T14:13:06.486Z,6.37
2018-08-03T14:15:36.434Z,5.83
2018-08-03T14:18:08.116Z,5.83
2018-08-03T14:20:39.361Z,6.67
2018-08-03T14:23:09.952Z,5.83
2018-08-03T14:25:41.421Z,6.40
2018-08-03T14:28:11.725Z,6.47
2018-08-03T14:30:42.574Z,5.93
2018-08-03T14:33:13.244Z,6.10
2018-08-03T14:35:43.796Z,5.83
2018-08-03T14:38:14.356Z,6.10
2018-08-03T14:40:44.809Z,6.27
2018-08-03T14:43:15.583Z,6.33
2018-08-03T14:45:50.704Z,6.10
2018-08-03T14:48:23.703Z,5.70
2018-08-03T14:50:56.328Z,5.80
2018-08-03T14:53:26.743Z,5.67
2018-08-03T14:55:57.627Z,5.77
2018-08-03T14:58:28.047Z,5.50
2018-08-03T15:00:58.889Z,6.17
2018-08-03T15:03:29.170Z,5.97
2018-08-03T15:05:58.545Z,5.73
2018-08-03T15:08:28.647Z,5.83
2018-08-03T15:10:58.195Z,6.07
2018-08-03T15:13:27.154Z,6.00
2018-08-03T15:15:56.664Z,5.27
2018-08-03T15:18:26.820Z,5.93
2018-08-03T15:20:56.532Z,5.73
2018-08-03T15:23:26.191Z,5.70
2018-08-03T15:25:55.849Z,5.80
2018-08-03T15:28:25.435Z,6.00
2018-08-03T15:30:54.957Z,5.87
2018-08-03T15:33:25.085Z,5.63
2018-08-03T15:35:54.926Z,6.10
2018-08-03T15:38:24.473Z,5.43
2018-08-03T15:40:54.241Z,5.50
2018-08-03T15:43:23.895Z,5.70
2018-08-03T15:45:53.410Z,6.13
2018-08-03T15:48:22.937Z,5.73
2018-08-03T15:50:52.906Z,5.90
2018-08-03T15:53:22.613Z,5.83
2018-08-03T15:55:52.172Z,5.63
2018-08-03T15:58:21.670Z,5.70
2018-08-03T16:00:51.266Z,6.23
2018-08-03T16:03:21.233Z,5.70
2018-08-03T16:05:51.369Z,5.50
2018-08-03T16:08:20.938Z,5.27
2018-08-03T16:10:50.583Z,5.53
2018-08-03T16:13:20.147Z,6.03
2018-08-03T16:15:49.642Z,5.77
2018-08-03T16:18:19.166Z,5.63
2018-08-03T16:20:49.222Z,5.53
2018-08-03T16:23:18.992Z,5.60
2018-08-03T16:25:48.609Z,5.80
2018-08-03T16:28:18.251Z,5.83
2018-08-03T16:30:48.021Z,5.43
2018-08-03T16:33:17.537Z,5.40
2018-08-03T16:35:47.077Z,5.93
2018-08-03T16:38:17.329Z,5.37
2018-08-03T16:40:47.004Z,5.70
2018-08-03T16:43:16.632Z,5.20
2018-08-03T16:45:46.364Z,5.13
2018-08-03T16:48:15.918Z,5.70
2018-08-03T16:50:46.368Z,5.30
2018-08-03T16:53:15.923Z,5.67
2018-08-03T16:55:45.387Z,5.60
2018-08-03T16:58:14.920Z,5.43
2018-08-03T17:00:44.534Z,5.23
2018-08-03T17:03:13.755Z,5.07
2018-08-03T17:05:43.503Z,5.40
2018-08-03T17:08:13.641Z,5.23
2018-08-03T17:10:42.858Z,5.40
2018-08-03T17:13:12.490Z,5.03
2018-08-03T17:15:41.842Z,5.30
2018-08-03T17:18:11.175Z,5.20
2018-08-03T17:20:40.704Z,5.53
2018-08-03T17:23:10.503Z,5.60
2018-08-03T17:25:40.006Z,4.97
2018-08-03T17:28:09.509Z,5.33
2018-08-03T17:30:38.905Z,5.13
2018-08-03T17:33:08.499Z,5.63
2018-08-03T17:35:38.034Z,5.37
2018-08-03T17:38:07.489Z,5.90
2018-08-03T17:40:37.284Z,5.70
2018-08-03T17:43:07.317Z,5.30
2018-08-03T17:45:37.140Z,5.10
2018-08-03T17:48:06.544Z,5.80
2018-08-03T17:50:36.237Z,5.20
2018-08-03T17:53:05.623Z,5.00
2018-08-03T17:55:35.240Z,4.83
2018-08-03T17:58:04.927Z,5.00
2018-08-03T18:00:34.348Z,5.60
2018-08-03T18:03:03.788Z,5.77
2018-08-03T18:05:33.225Z,4.90
2018-08-03T18:08:02.597Z,5.23
2018-08-03T18:10:32.148Z,5.90
2018-08-03T18:13:01.674Z,5.97
2018-08-03T18:15:31.676Z,5.70
2018-08-03T18:18:01.159Z,5.60
2018-08-03T18:20:30.733Z,5.93
2018-08-03T18:23:00.350Z,5.57
2018-08-03T18:25:30.516Z,5.53
2018-08-03T18:28:00.315Z,5.93
2018-08-03T18:30:30.036Z,5.67
2018-08-03T18:32:59.684Z,5.60
2018-08-03T18:35:29.291Z,5.53
2018-08-03T18:37:58.912Z,5.33
2018-08-03T18:40:27.901Z,5.77
2018-08-03T18:42:57.263Z,5.23
2018-08-03T18:45:26.971Z,5.20
2018-08-03T18:47:57.212Z,4.93
2018-08-03T18:50:26.627Z,5.23
2018-08-03T18:52:56.022Z,5.50
2018-08-03T18:55:25.422Z,5.40
2018-08-03T18:57:54.838Z,5.20
2018-08-03T19:00:24.356Z,5.30
2018-08-03T19:02:53.888Z,10.37
2018-08-03T19:05:23.339Z,7.00
2018-08-03T19:07:52.798Z,6.77
2018-08-03T19:10:22.236Z,6.17
2018-08-03T19:12:51.768Z,5.87
2018-08-03T19:15:21.148Z,6.63
2018-08-03T19:17:50.456Z,7.03
2018-08-03T19:20:20.935Z,7.17
2018-08-03T19:22:50.482Z,6.50
2018-08-03T19:25:19.865Z,6.33
2018-08-03T19:27:50.052Z,5.87
2018-08-03T19:30:19.688Z,6.27
2018-08-03T19:32:49.226Z,6.03
2018-08-03T19:35:18.861Z,7.07
2018-08-03T19:37:48.381Z,6.33
2018-08-03T19:40:17.939Z,6.33
2018-08-03T19:42:47.576Z,6.30
2018-08-03T19:45:17.185Z,6.37
2018-08-03T19:47:46.659Z,6.13
2018-08-03T19:50:16.096Z,6.70
2018-08-03T19:52:45.832Z,6.57
2018-08-03T19:55:15.256Z,6.93
2018-08-03T19:57:44.757Z,6.50
2018-08-03T20:00:14.352Z,7.23
2018-08-03T20:02:43.753Z,7.70
2018-08-03T20:05:13.205Z,7.40
2018-08-03T20:07:42.597Z,7.00
2018-08-03T20:10:14.034Z,7.00
2018-08-03T20:12:43.476Z,6.73
2018-08-03T20:15:12.801Z,6.90
2018-08-03T20:17:42.143Z,6.43
2018-08-03T20:20:11.586Z,6.37
2018-08-03T20:22:40.921Z,7.00
2018-08-03T20:25:10.338Z,6.90
2018-08-03T20:27:39.671Z,6.57
2018-08-03T20:30:09.152Z,6.33
2018-08-03T20:32:38.463Z,6.20
2018-08-03T20:35:07.806Z,6.10
2018-08-03T20:37:37.127Z,6.30
2018-08-03T20:40:09.001Z,6.03
2018-08-03T20:42:39.228Z,6.20
2018-08-03T20:45:09.729Z,5.80
2018-08-03T20:47:39.063Z,6.00
2018-08-03T20:50:08.412Z,5.63
2018-08-03T20:52:37.746Z,6.07
2018-08-03T20:55:07.116Z,5.50
2018-08-03T20:57:36.673Z,6.40
2018-08-03T21:00:06.257Z,6.10
2018-08-03T21:02:35.581Z,5.90
2018-08-03T21:05:04.949Z,6.17
2018-08-03T21:07:34.313Z,6.23
2018-08-03T21:10:03.687Z,6.00
2018-08-03T21:12:33.046Z,6.13
2018-08-03T21:15:02.421Z,6.30
2018-08-03T21:17:31.741Z,6.50
2018-08-03T21:20:01.176Z,6.23
2018-08-03T21:22:30.475Z,6.43
2018-08-03T21:24:59.796Z,6.30
2018-08-03T21:27:29.154Z,6.30
2018-08-03T21:29:59.011Z,6.47
2018-08-03T21:32:28.666Z,6.43
2018-08-03T21:34:57.447Z,6.30
2018-08-03T21:37:26.806Z,6.27
2018-08-03T21:39:56.164Z,6.53
2018-08-03T21:42:25.465Z,6.60
2018-08-03T21:44:54.299Z,5.83
2018-08-03T21:47:23.605Z,6.40
2018-08-03T21:49:53.257Z,6.40
2018-08-03T21:52:22.560Z,6.53
2018-08-03T21:54:51.863Z,6.33
2018-08-03T21:57:21.182Z,6.83
2018-08-03T21:59:50.566Z,6.40
2018-08-03T22:02:20.039Z,6.73
2018-08-03T22:04:49.896Z,7.17
2018-08-03T22:07:20.073Z,7.37
2018-08-03T22:09:49.439Z,5.97
2018-08-03T22:12:18.753Z,6.80
2018-08-03T22:14:48.131Z,6.60
2018-08-03T22:17:17.459Z,6.37
2018-08-03T22:19:46.859Z,6.20
2018-08-03T22:22:16.193Z,6.17
2018-08-03T22:24:45.528Z,6.90
2018-08-03T22:27:14.865Z,6.37
2018-08-03T22:29:44.235Z,6.40
2018-08-03T22:32:13.600Z,6.90
2018-08-03T22:34:43.174Z,6.67
2018-08-03T22:37:12.532Z,6.70
2018-08-03T22:39:42.819Z,7.10
2018-08-03T22:42:12.133Z,7.30
2018-08-03T22:44:41.448Z,7.00
2018-08-03T22:47:10.770Z,6.87
2018-08-03T22:49:40.175Z,7.63
2018-08-03T22:52:09.586Z,6.80
2018-08-03T22:54:38.909Z,7.13
2018-08-03T22:57:08.240Z,7.30
2018-08-03T22:59:37.584Z,6.80
2018-08-03T23:02:08.373Z,7.07
2018-08-03T23:04:38.925Z,7.13
2018-08-03T23:07:09.199Z,7.60
2018-08-03T23:09:38.565Z,6.80
2018-08-03T23:12:08.317Z,6.73
2018-08-03T23:14:37.655Z,7.50
2018-08-03T23:17:07.016Z,7.50
2018-08-03T23:19:36.360Z,7.03
2018-08-03T23:22:05.667Z,6.90
2018-08-03T23:24:34.984Z,7.00
2018-08-03T23:27:04.347Z,7.10
2018-08-03T23:29:33.695Z,7.60
2018-08-03T23:32:03.021Z,7.43
2018-08-03T23:34:32.351Z,6.90
2018-08-03T23:37:01.671Z,7.27
2018-08-03T23:39:31.233Z,7.33
2018-08-03T23:42:00.568Z,6.90
2018-08-03T23:44:29.949Z,7.33
2018-08-03T23:46:59.248Z,7.13
2018-08-03T23:49:28.613Z,7.83
2018-08-03T23:51:57.934Z,7.70
2018-08-03T23:54:27.305Z,7.60
2018-08-03T23:56:56.612Z,7.50
2018-08-03T23:59:25.989Z,7.47
